sensor_id;sensor_type;location;lat;lon;timestamp;P1;durP1;ratioP1;P2;durP2;ratioP2
15915;SDS011;8057;47.830;-3.870;2023-06-14T00:02:48;7.50;;;6.90;;
15915;SDS011;8057;47.830;-3.870;2023-06-14T00:06:59;8.93;;;8.13;;
15915;SDS011;8057;47.830;-3.870;2023-06-14T00:11:09;9.83;;;8.90;;
15915;SDS011;8057;47.830;-3.870;2023-06-14T00:15:18;10.70;;;9.70;;
15915;SDS011;8057;47.830;-3.870;2023-06-14T00:19:28;10.43;;;9.53;;
15915;SDS011;8057;47.830;-3.870;2023-06-14T00:23:42;9.97;;;8.97;;
15915;SDS011;8057;47.830;-3.870;2023-06-14T00:27:52;10.70;;;9.70;;
15915;SDS011;8057;47.830;-3.870;2023-06-14T00:32:02;11.77;;;10.57;;
15915;SDS011;8057;47.830;-3.870;2023-06-14T00:36:12;12.17;;;10.97;;
15915;SDS011;8057;47.830;-3.870;2023-06-14T00:40:23;13.93;;;11.43;;
15915;SDS011;8057;47.830;-3.870;2023-06-14T00:44:32;11.40;;;10.30;;
15915;SDS011;8057;47.830;-3.870;2023-06-14T00:48:41;12.20;;;10.90;;
15915;SDS011;8057;47.830;-3.870;2023-06-14T00:52:51;11.93;;;10.73;;
15915;SDS011;8057;47.830;-3.870;2023-06-14T00:57:02;14.67;;;12.97;;
15915;SDS011;8057;47.830;-3.870;2023-06-14T01:01:11;13.90;;;12.53;;
15915;SDS011;8057;47.830;-3.870;2023-06-14T01:05:21;14.20;;;12.87;;
15915;SDS011;8057;47.830;-3.870;2023-06-14T01:09:32;14.40;;;13.00;;
15915;SDS011;8057;47.830;-3.870;2023-06-14T01:13:51;14.23;;;12.87;;
15915;SDS011;8057;47.830;-3.870;2023-06-14T01:18:02;15.33;;;13.73;;
15915;SDS011;8057;47.830;-3.870;2023-06-14T01:22:12;16.50;;;14.73;;
15915;SDS011;8057;47.830;-3.870;2023-06-14T01:26:23;16.23;;;14.53;;
15915;SDS011;8057;47.830;-3.870;2023-06-14T01:30:32;16.77;;;15.13;;
15915;SDS011;8057;47.830;-3.870;2023-06-14T01:34:44;15.70;;;14.10;;
15915;SDS011;8057;47.830;-3.870;2023-06-14T01:38:53;15.50;;;13.90;;
15915;SDS011;8057;47.830;-3.870;2023-06-14T01:43:06;15.47;;;13.97;;
15915;SDS011;8057;47.830;-3.870;2023-06-14T01:47:16;17.13;;;15.33;;
15915;SDS011;8057;47.830;-3.870;2023-06-14T01:51:25;16.27;;;14.63;;
15915;SDS011;8057;47.830;-3.870;2023-06-14T01:55:35;15.97;;;14.37;;
15915;SDS011;8057;47.830;-3.870;2023-06-14T01:59:52;16.77;;;14.53;;
15915;SDS011;8057;47.830;-3.870;2023-06-14T02:04:01;16.10;;;14.43;;
15915;SDS011;8057;47.830;-3.870;2023-06-14T02:08:11;16.63;;;14.93;;
15915;SDS011;8057;47.830;-3.870;2023-06-14T02:12:20;15.23;;;13.47;;
15915;SDS011;8057;47.830;-3.870;2023-06-14T02:16:31;15.93;;;14.33;;
15915;SDS011;8057;47.830;-3.870;2023-06-14T02:20:44;16.67;;;14.73;;
15915;SDS011;8057;47.830;-3.870;2023-06-14T02:24:54;15.00;;;13.50;;
15915;SDS011;8057;47.830;-3.870;2023-06-14T02:29:08;15.53;;;13.87;;
15915;SDS011;8057;47.830;-3.870;2023-06-14T02:33:21;16.23;;;14.60;;
15915;SDS011;8057;47.830;-3.870;2023-06-14T02:37:30;16.53;;;14.40;;
15915;SDS011;8057;47.830;-3.870;2023-06-14T02:41:41;15.77;;;14.13;;
15915;SDS011;8057;47.830;-3.870;2023-06-14T02:45:51;15.90;;;14.30;;
15915;SDS011;8057;47.830;-3.870;2023-06-14T02:50:02;16.17;;;14.60;;
15915;SDS011;8057;47.830;-3.870;2023-06-14T02:54:12;15.30;;;13.67;;
15915;SDS011;8057;47.830;-3.870;2023-06-14T02:58:21;16.00;;;14.40;;
15915;SDS011;8057;47.830;-3.870;2023-06-14T03:02:32;16.40;;;14.80;;
15915;SDS011;8057;47.830;-3.870;2023-06-14T03:06:42;16.47;;;14.90;;
15915;SDS011;8057;47.830;-3.870;2023-06-14T03:10:58;17.67;;;15.00;;
15915;SDS011;8057;47.830;-3.870;2023-06-14T03:15:09;15.33;;;13.73;;
15915;SDS011;8057;47.830;-3.870;2023-06-14T03:19:20;16.47;;;14.37;;
15915;SDS011;8057;47.830;-3.870;2023-06-14T03:23:31;15.23;;;13.63;;
15915;SDS011;8057;47.830;-3.870;2023-06-14T03:27:40;14.80;;;13.40;;
15915;SDS011;8057;47.830;-3.870;2023-06-14T03:31:56;15.33;;;13.83;;
15915;SDS011;8057;47.830;-3.870;2023-06-14T03:36:07;14.53;;;13.13;;
15915;SDS011;8057;47.830;-3.870;2023-06-14T03:40:18;14.50;;;13.10;;
15915;SDS011;8057;47.830;-3.870;2023-06-14T03:44:28;15.37;;;13.77;;
15915;SDS011;8057;47.830;-3.870;2023-06-14T03:48:37;15.13;;;13.53;;
15915;SDS011;8057;47.830;-3.870;2023-06-14T03:52:47;14.80;;;13.40;;
15915;SDS011;8057;47.830;-3.870;2023-06-14T03:56:59;11.77;;;10.67;;
15915;SDS011;8057;47.830;-3.870;2023-06-14T04:01:08;13.73;;;12.33;;
15915;SDS011;8057;47.830;-3.870;2023-06-14T04:05:19;12.93;;;11.70;;
15915;SDS011;8057;47.830;-3.870;2023-06-14T04:09:28;15.90;;;14.40;;
15915;SDS011;8057;47.830;-3.870;2023-06-14T04:13:40;15.90;;;14.40;;
15915;SDS011;8057;47.830;-3.870;2023-06-14T04:17:49;16.47;;;14.30;;
15915;SDS011;8057;47.830;-3.870;2023-06-14T04:21:58;14.93;;;13.43;;
15915;SDS011;8057;47.830;-3.870;2023-06-14T04:26:09;15.20;;;13.73;;
15915;SDS011;8057;47.830;-3.870;2023-06-14T04:30:20;15.00;;;13.60;;
15915;SDS011;8057;47.830;-3.870;2023-06-14T04:34:34;15.30;;;13.80;;
15915;SDS011;8057;47.830;-3.870;2023-06-14T04:38:44;15.00;;;13.60;;
15915;SDS011;8057;47.830;-3.870;2023-06-14T04:42:56;15.43;;;13.93;;
15915;SDS011;8057;47.830;-3.870;2023-06-14T04:47:08;16.03;;;14.33;;
15915;SDS011;8057;47.830;-3.870;2023-06-14T04:51:18;16.10;;;14.40;;
15915;SDS011;8057;47.830;-3.870;2023-06-14T04:55:29;15.40;;;13.80;;
15915;SDS011;8057;47.830;-3.870;2023-06-14T04:59:40;15.30;;;13.80;;
15915;SDS011;8057;47.830;-3.870;2023-06-14T05:03:52;14.47;;;12.97;;
15915;SDS011;8057;47.830;-3.870;2023-06-14T05:08:01;14.33;;;12.93;;
15915;SDS011;8057;47.830;-3.870;2023-06-14T05:12:11;12.17;;;10.97;;
15915;SDS011;8057;47.830;-3.870;2023-06-14T05:16:24;11.57;;;10.50;;
15915;SDS011;8057;47.830;-3.870;2023-06-14T05:20:36;10.90;;;9.80;;
15915;SDS011;8057;47.830;-3.870;2023-06-14T05:24:45;12.17;;;11.03;;
15915;SDS011;8057;47.830;-3.870;2023-06-14T05:28:55;13.07;;;11.87;;
15915;SDS011;8057;47.830;-3.870;2023-06-14T05:33:04;13.57;;;12.37;;
15915;SDS011;8057;47.830;-3.870;2023-06-14T05:37:15;13.67;;;12.37;;
15915;SDS011;8057;47.830;-3.870;2023-06-14T05:41:25;14.17;;;12.77;;
15915;SDS011;8057;47.830;-3.870;2023-06-14T05:45:36;14.43;;;13.03;;
15915;SDS011;8057;47.830;-3.870;2023-06-14T05:49:45;14.43;;;12.97;;
15915;SDS011;8057;47.830;-3.870;2023-06-14T05:53:56;15.37;;;13.97;;
15915;SDS011;8057;47.830;-3.870;2023-06-14T05:58:07;16.50;;;14.97;;
15915;SDS011;8057;47.830;-3.870;2023-06-14T06:02:17;16.37;;;14.90;;
15915;SDS011;8057;47.830;-3.870;2023-06-14T06:06:28;15.90;;;14.33;;
15915;SDS011;8057;47.830;-3.870;2023-06-14T06:10:39;15.97;;;14.47;;
15915;SDS011;8057;47.830;-3.870;2023-06-14T06:14:48;16.43;;;14.73;;
15915;SDS011;8057;47.830;-3.870;2023-06-14T06:18:57;16.50;;;14.90;;
15915;SDS011;8057;47.830;-3.870;2023-06-14T06:23:07;18.13;;;16.43;;
15915;SDS011;8057;47.830;-3.870;2023-06-14T06:27:18;16.97;;;15.47;;
15915;SDS011;8057;47.830;-3.870;2023-06-14T06:31:27;17.77;;;16.17;;
15915;SDS011;8057;47.830;-3.870;2023-06-14T06:35:36;20.30;;;18.50;;
15915;SDS011;8057;47.830;-3.870;2023-06-14T06:39:46;18.20;;;16.60;;
15915;SDS011;8057;47.830;-3.870;2023-06-14T06:43:57;18.17;;;16.60;;
15915;SDS011;8057;47.830;-3.870;2023-06-14T06:48:06;19.20;;;17.50;;
15915;SDS011;8057;47.830;-3.870;2023-06-14T06:52:17;17.43;;;15.83;;
15915;SDS011;8057;47.830;-3.870;2023-06-14T07:33:51;15.20;;;13.90;;
15915;SDS011;8057;47.830;-3.870;2023-06-14T07:38:01;15.43;;;14.03;;
15915;SDS011;8057;47.830;-3.870;2023-06-14T07:42:11;13.77;;;12.63;;
15915;SDS011;8057;47.830;-3.870;2023-06-14T07:46:20;14.17;;;12.97;;
15915;SDS011;8057;47.830;-3.870;2023-06-14T08:28:42;11.53;;;10.63;;
15915;SDS011;8057;47.830;-3.870;2023-06-14T08:33:00;10.33;;;9.53;;
15915;SDS011;8057;47.830;-3.870;2023-06-14T08:37:28;11.07;;;10.07;;
15915;SDS011;8057;47.830;-3.870;2023-06-14T08:57:13;10.10;;;9.20;;
15915;SDS011;8057;47.830;-3.870;2023-06-14T09:01:24;8.27;;;7.57;;
15915;SDS011;8057;47.830;-3.870;2023-06-14T09:05:33;9.33;;;8.53;;
15915;SDS011;8057;47.830;-3.870;2023-06-14T09:09:43;8.10;;;7.37;;
15915;SDS011;8057;47.830;-3.870;2023-06-14T09:14:15;7.80;;;7.20;;
15915;SDS011;8057;47.830;-3.870;2023-06-14T09:18:33;8.33;;;7.73;;
15915;SDS011;8057;47.830;-3.870;2023-06-14T09:22:44;8.33;;;7.53;;
15915;SDS011;8057;47.830;-3.870;2023-06-14T09:26:54;7.10;;;6.57;;
15915;SDS011;8057;47.830;-3.870;2023-06-14T09:31:07;8.30;;;7.47;;
15915;SDS011;8057;47.830;-3.870;2023-06-14T09:35:18;7.77;;;7.17;;
15915;SDS011;8057;47.830;-3.870;2023-06-14T09:39:27;6.00;;;5.57;;
15915;SDS011;8057;47.830;-3.870;2023-06-14T09:43:37;8.97;;;8.30;;
15915;SDS011;8057;47.830;-3.870;2023-06-14T09:47:48;9.13;;;8.43;;
15915;SDS011;8057;47.830;-3.870;2023-06-14T09:52:14;7.10;;;6.60;;
15915;SDS011;8057;47.830;-3.870;2023-06-14T09:56:26;8.40;;;7.60;;
15915;SDS011;8057;47.830;-3.870;2023-06-14T10:00:38;7.10;;;6.60;;
15915;SDS011;8057;47.830;-3.870;2023-06-14T10:04:52;7.57;;;6.97;;
15915;SDS011;8057;47.830;-3.870;2023-06-14T10:09:08;7.80;;;7.10;;
15915;SDS011;8057;47.830;-3.870;2023-06-14T10:13:18;8.17;;;7.33;;
15915;SDS011;8057;47.830;-3.870;2023-06-14T10:17:32;6.80;;;6.30;;
15915;SDS011;8057;47.830;-3.870;2023-06-14T10:21:54;7.20;;;6.63;;
15915;SDS011;8057;47.830;-3.870;2023-06-14T10:26:17;8.10;;;7.50;;
15915;SDS011;8057;47.830;-3.870;2023-06-14T10:30:30;7.00;;;6.50;;
15915;SDS011;8057;47.830;-3.870;2023-06-14T10:34:45;8.20;;;7.40;;
15915;SDS011;8057;47.830;-3.870;2023-06-14T10:39:06;8.33;;;7.73;;
15915;SDS011;8057;47.830;-3.870;2023-06-14T10:43:22;7.63;;;7.03;;
15915;SDS011;8057;47.830;-3.870;2023-06-14T10:47:33;8.07;;;7.40;;
15915;SDS011;8057;47.830;-3.870;2023-06-14T10:51:45;7.90;;;7.30;;
15915;SDS011;8057;47.830;-3.870;2023-06-14T10:56:08;6.77;;;6.27;;
15915;SDS011;8057;47.830;-3.870;2023-06-14T11:00:49;7.87;;;7.17;;
15915;SDS011;8057;47.830;-3.870;2023-06-14T11:05:10;8.10;;;7.40;;
15915;SDS011;8057;47.830;-3.870;2023-06-14T11:14:08;8.53;;;7.83;;
15915;SDS011;8057;47.830;-3.870;2023-06-14T11:18:22;7.47;;;6.77;;
15915;SDS011;8057;47.830;-3.870;2023-06-14T11:41:13;6.33;;;5.83;;
15915;SDS011;8057;47.830;-3.870;2023-06-14T11:45:23;5.30;;;4.90;;
15915;SDS011;8057;47.830;-3.870;2023-06-14T11:49:48;5.33;;;4.93;;
15915;SDS011;8057;47.830;-3.870;2023-06-14T11:54:01;5.23;;;4.90;;
15915;SDS011;8057;47.830;-3.870;2023-06-14T11:58:11;5.87;;;5.47;;
15915;SDS011;8057;47.830;-3.870;2023-06-14T12:02:23;5.30;;;4.90;;
15915;SDS011;8057;47.830;-3.870;2023-06-14T12:06:38;6.20;;;5.70;;
15915;SDS011;8057;47.830;-3.870;2023-06-14T12:10:55;5.90;;;5.40;;
15915;SDS011;8057;47.830;-3.870;2023-06-14T12:20:20;4.70;;;4.33;;
15915;SDS011;8057;47.830;-3.870;2023-06-14T12:24:30;5.17;;;4.87;;
15915;SDS011;8057;47.830;-3.870;2023-06-14T12:28:43;5.40;;;5.00;;
15915;SDS011;8057;47.830;-3.870;2023-06-14T12:32:54;5.43;;;5.03;;
15915;SDS011;8057;47.830;-3.870;2023-06-14T13:46:57;5.77;;;5.37;;
15915;SDS011;8057;47.830;-3.870;2023-06-14T13:51:25;6.13;;;5.73;;
15915;SDS011;8057;47.830;-3.870;2023-06-14T13:56:19;6.00;;;5.50;;
15915;SDS011;8057;47.830;-3.870;2023-06-14T14:00:37;5.93;;;5.53;;
15915;SDS011;8057;47.830;-3.870;2023-06-14T20:06:29;13.60;;;12.47;;
15915;SDS011;8057;47.830;-3.870;2023-06-14T20:11:03;15.97;;;14.57;;
15915;SDS011;8057;47.830;-3.870;2023-06-14T20:29:30;17.30;;;15.70;;
15915;SDS011;8057;47.830;-3.870;2023-06-14T20:38:53;17.27;;;15.80;;
15915;SDS011;8057;47.830;-3.870;2023-06-14T21:15:30;23.73;;;21.43;;
15915;SDS011;8057;47.830;-3.870;2023-06-14T21:19:41;23.10;;;20.70;;
15915;SDS011;8057;47.830;-3.870;2023-06-14T21:23:52;20.93;;;19.00;;
15915;SDS011;8057;47.830;-3.870;2023-06-14T21:28:35;23.93;;;21.63;;
15915;SDS011;8057;47.830;-3.870;2023-06-14T21:33:02;23.33;;;21.03;;
15915;SDS011;8057;47.830;-3.870;2023-06-14T21:37:35;23.40;;;21.10;;
15915;SDS011;8057;47.830;-3.870;2023-06-14T21:42:07;22.87;;;20.60;;
15915;SDS011;8057;47.830;-3.870;2023-06-14T21:56:32;25.37;;;22.77;;
15915;SDS011;8057;47.830;-3.870;2023-06-14T22:01:06;26.67;;;24.00;;
15915;SDS011;8057;47.830;-3.870;2023-06-14T22:05:34;29.20;;;26.30;;
15915;SDS011;8057;47.830;-3.870;2023-06-14T22:09:53;29.67;;;26.60;;
15915;SDS011;8057;47.830;-3.870;2023-06-14T22:14:17;28.63;;;25.83;;
15915;SDS011;8057;47.830;-3.870;2023-06-14T22:18:35;30.47;;;27.30;;
15915;SDS011;8057;47.830;-3.870;2023-06-14T22:23:01;28.77;;;26.00;;
15915;SDS011;8057;47.830;-3.870;2023-06-14T22:27:39;30.30;;;27.10;;
15915;SDS011;8057;47.830;-3.870;2023-06-14T22:31:52;32.03;;;28.83;;
15915;SDS011;8057;47.830;-3.870;2023-06-14T22:36:31;31.83;;;28.53;;
15915;SDS011;8057;47.830;-3.870;2023-06-14T22:40:47;30.60;;;27.37;;
15915;SDS011;8057;47.830;-3.870;2023-06-14T22:50:11;32.50;;;29.00;;
15915;SDS011;8057;47.830;-3.870;2023-06-14T22:54:31;36.07;;;32.03;;
15915;SDS011;8057;47.830;-3.870;2023-06-14T22:58:52;37.47;;;32.83;;
15915;SDS011;8057;47.830;-3.870;2023-06-14T23:07:52;34.87;;;31.40;;
15915;SDS011;8057;47.830;-3.870;2023-06-14T23:12:17;39.23;;;35.00;;
15915;SDS011;8057;47.830;-3.870;2023-06-14T23:16:39;37.50;;;33.60;;
15915;SDS011;8057;47.830;-3.870;2023-06-14T23:21:08;37.73;;;33.80;;
15915;SDS011;8057;47.830;-3.870;2023-06-14T23:25:21;33.83;;;29.30;;
15915;SDS011;8057;47.830;-3.870;2023-06-14T23:30:04;37.97;;;34.00;;
15915;SDS011;8057;47.830;-3.870;2023-06-14T23:50:45;34.50;;;30.73;;
15915;SDS011;8057;47.830;-3.870;2023-06-14T23:54:58;37.17;;;33.40;;
15915;SDS011;8057;47.830;-3.870;2023-06-14T23:59:13;33.73;;;30.07;;
